If you wish to contribute or participate in the discussions about articles you are invited to join SKYbrary as a registered user

 Actions

Treviso-Sant'Angelo Airport

From SKYbrary Wiki

LIPH
Airport
ICAO: LIPH – IATA: TSF
Summary
Name Treviso-Sant'Angelo Airport
Region Europe
Territory Italy IT.gif
Location Treviso, Veneto
Serving Treviso
Elevation 17.983 m
59 ft
59 ft17.983 m
Type large airport
Coordinates 45° 38' 54.24" N, 12° 11' 39.92" E
Runways
Designator Length Width Surface ROPS
7/25 2420 m7,939.633 ft
44 m144.357 ft
ASP yes/yes


METAR
Observation LIPH 180520Z 03003KT 010V070 6000 SCT015 BKN030 21/20 Q1014
Station Treviso / S. Angelo
Date/Time 18 September 2019 05:20:00
Wind direction 30°
Wind speed 03 kts
Lowest cloud amount scattered clouds
Temperature 21°C
Dew point 20°C
Humidity 94%
QNH 1014 hPa
Weather condition n/a

Maps

Terrain

Loading map...

Airport Layout

Loading map...


Accidents & Serious Incidents at or in vicinity of LIPH

None on SKYbrary